YTBM weather

Tabulam Oval Helipad
New South Wales, Australia

Public forecast

Using degrees Celsius for public forecast. Weather courtesy of forecast.io.

METAR (pilot weather report)

Closest report is Casino Airport, 26.2 nm (48.6 km) E. Retrieved 2019/04/18 09:00 UTC (59 minutes ago):

YCAS 180900Z AUTO 18004KT //// // ////// 19/16 Q1023

TAF (pilot weather forecast)

Closest forecast is Gold Coast Airport, 65.9 nm (122.1 km) NE. Retrieved 2019/04/18 06:00 UTC (4 hours ago):

TAF YBCG 180507Z 1806/1906 16013KT 9999 -SHRA SCT035 FM180800 20009KT 9999 -SHRA SCT015 SCT025 FM182300 12014KT 9999 -SHRA FEW015 SCT025 INTER 1814/1906 3000 SHRA BKN012